Time;durP1;ratioP1;P1;durP2;ratioP2;P2;SDS_P1;SDS_P2;PMS_P1;PMS_P2;Temp;Humidity;BMP_temperature;BMP_pressure;BME280_temperature;BME280_humidity;BME280_pressure;Samples;Min_cycle;Max_cycle;Signal;HPM_P1;HPM_P2
2021/09/21 00:00:30;;;;;;;13.93;12.82;;;9.70;85.70;;;;;;5011412;29;20070;-71
2021/09/21 00:03:02;;;;;;;13.25;12.13;;;9.70;85.90;;;;;;5010726;29;20397;-73
2021/09/21 00:05:36;;;;;;;13.32;12.27;;;9.70;86.70;;;;;;5009947;29;20807;-72
2021/09/21 00:08:08;;;;;;;13.32;12.23;;;9.70;86.20;;;;;;5006190;29;20049;-72
2021/09/21 00:10:40;;;;;;;13.40;12.30;;;9.60;86.70;;;;;;5009266;29;20067;-70
2021/09/21 00:13:12;;;;;;;12.82;11.77;;;9.60;85.90;;;;;;5008771;29;20152;-71
2021/09/21 00:15:44;;;;;;;13.27;12.27;;;9.50;86.40;;;;;;5010236;29;20129;-70
2021/09/21 00:18:16;;;;;;;13.20;12.05;;;9.50;86.60;;;;;;5010807;29;20053;-72
2021/09/21 00:20:48;;;;;;;13.07;11.93;;;9.40;86.40;;;;;;5008772;29;20133;-72
2021/09/21 00:23:19;;;;;;;13.60;12.38;;;9.50;87.40;;;;;;5012257;29;20149;-70
2021/09/21 00:25:52;;;;;;;13.05;11.95;;;9.40;87.50;;;;;;5013692;29;20094;-71
2021/09/21 00:28:24;;;;;;;17.23;13.63;;;9.40;87.50;;;;;;5013342;29;20052;-71
2021/09/21 00:31:03;;;;;;;14.50;13.20;;;9.30;88.10;;;;;;5002631;29;20060;-71
2021/09/21 00:33:46;;;;;;;13.30;12.10;;;9.40;88.10;;;;;;5018374;29;20124;-72
2021/09/21 00:36:19;;;;;;;14.23;13.02;;;9.30;87.70;;;;;;5012377;29;20161;-71
2021/09/21 00:38:51;;;;;;;13.77;12.68;;;9.40;87.30;;;;;;5013981;29;20081;-72
2021/09/21 00:41:23;;;;;;;14.20;13.00;;;9.40;86.70;;;;;;4998753;29;20134;-71
2021/09/21 00:43:54;;;;;;;13.95;12.68;;;9.40;86.70;;;;;;5013415;29;20089;-72
2021/09/21 00:46:26;;;;;;;13.63;12.43;;;9.40;86.60;;;;;;5012503;29;20128;-71
2021/09/21 00:48:58;;;;;;;12.82;11.82;;;9.40;87.20;;;;;;5012969;29;20516;-72
2021/09/21 00:51:31;;;;;;;13.73;12.43;;;9.40;86.70;;;;;;5014591;29;20049;-73
2021/09/21 00:54:03;;;;;;;13.63;12.35;;;9.40;86.60;;;;;;5012605;29;20689;-73
2021/09/21 00:56:36;;;;;;;12.85;11.68;;;9.40;86.60;;;;;;5010526;29;20153;-72
2021/09/21 00:59:08;;;;;;;13.82;12.60;;;9.30;86.20;;;;;;5012553;29;20080;-71
2021/09/21 01:01:40;;;;;;;13.48;12.27;;;9.40;86.10;;;;;;5013470;29;20140;-71
2021/09/21 01:04:12;;;;;;;13.55;12.45;;;9.40;85.80;;;;;;4996902;29;20880;-73
2021/09/21 01:06:44;;;;;;;12.93;11.73;;;9.30;86.30;;;;;;5011680;29;20708;-73
2021/09/21 01:09:18;;;;;;;13.15;12.00;;;9.30;86.20;;;;;;5014894;29;20045;-73
2021/09/21 01:11:53;;;;;;;13.30;12.20;;;9.30;86.10;;;;;;4994606;29;20658;-72
2021/09/21 01:14:26;;;;;;;13.05;11.95;;;9.30;86.00;;;;;;5013249;29;20041;-72
2021/09/21 01:16:58;;;;;;;13.80;12.70;;;9.30;85.90;;;;;;5012541;29;20627;-72
2021/09/21 01:19:30;;;;;;;14.13;13.00;;;9.20;85.70;;;;;;5009733;29;20832;-71
2021/09/21 01:22:02;;;;;;;13.95;12.77;;;9.30;86.00;;;;;;4994898;29;20059;-72
2021/09/21 01:24:34;;;;;;;14.05;12.65;;;9.30;86.10;;;;;;5012300;29;20190;-73
2021/09/21 01:27:06;;;;;;;14.00;12.70;;;9.20;86.40;;;;;;5010969;29;20890;-71
2021/09/21 01:29:38;;;;;;;13.88;12.77;;;9.20;86.60;;;;;;4995810;29;20049;-72
2021/09/21 01:32:10;;;;;;;13.60;12.50;;;9.20;87.00;;;;;;5010710;29;20046;-73
2021/09/21 01:34:41;;;;;;;14.15;12.75;;;9.20;86.70;;;;;;5010566;29;20160;-73
2021/09/21 01:37:13;;;;;;;14.02;12.82;;;9.20;86.30;;;;;;5009229;29;20054;-73
2021/09/21 01:39:45;;;;;;;13.25;12.20;;;9.20;86.70;;;;;;5009863;29;20133;-73
2021/09/21 01:42:17;;;;;;;13.27;12.18;;;9.20;86.60;;;;;;5009082;29;20057;-73
2021/09/21 01:44:49;;;;;;;13.93;12.73;;;9.20;86.90;;;;;;4993350;29;20168;-73
2021/09/21 01:47:22;;;;;;;14.60;13.30;;;9.20;87.10;;;;;;5010659;29;20057;-72
2021/09/21 01:52:44;;;;;;;13.10;12.00;;;9.10;87.20;;;;;;5012592;29;20197;-71
2021/09/21 02:00:57;;;;;;;;;;;9.10;87.20;;;;;;5011500;29;19999;-72
2021/09/21 02:03:29;;;;;;;13.52;12.32;;;9.20;87.20;;;;;;5012726;29;19939;-73
2021/09/21 02:06:01;;;;;;;13.32;12.23;;;9.20;87.80;;;;;;5010442;29;20168;-72
2021/09/21 02:08:33;;;;;;;12.85;11.85;;;9.20;88.40;;;;;;5012594;29;20049;-73
2021/09/21 02:11:05;;;;;;;12.70;11.70;;;9.10;87.90;;;;;;5011514;29;20117;-72
2021/09/21 02:13:37;;;;;;;12.73;11.63;;;9.00;87.70;;;;;;5012943;29;20137;-72
2021/09/21 02:16:09;;;;;;;13.05;12.05;;;8.90;87.40;;;;;;5011736;29;20315;-72
2021/09/21 02:18:40;;;;;;;12.65;11.65;;;8.90;87.10;;;;;;5011892;29;20169;-71
2021/09/21 02:21:12;;;;;;;13.43;12.20;;;8.80;87.20;;;;;;5010714;29;20904;-71
2021/09/21 02:23:45;;;;;;;12.65;11.65;;;8.80;87.10;;;;;;5012502;29;20073;-72
2021/09/21 02:26:17;;;;;;;13.77;12.48;;;8.70;87.20;;;;;;4992078;29;20064;-72
2021/09/21 02:28:49;;;;;;;12.75;11.75;;;8.70;87.40;;;;;;5012344;29;20130;-72
2021/09/21 02:31:22;;;;;;;13.27;12.07;;;8.70;87.50;;;;;;5010151;29;20145;-71
2021/09/21 02:33:54;;;;;;;13.05;11.95;;;8.70;87.40;;;;;;5010076;29;20196;-71
2021/09/21 02:36:26;;;;;;;12.73;11.73;;;8.70;87.60;;;;;;5010725;29;20046;-71
2021/09/21 02:38:58;;;;;;;13.50;12.30;;;8.70;87.80;;;;;;5011608;29;20059;-71
2021/09/21 02:41:29;;;;;;;13.52;12.32;;;8.70;88.00;;;;;;5010591;29;20121;-70
2021/09/21 02:44:02;;;;;;;13.65;12.43;;;8.70;88.10;;;;;;5011371;29;20160;-71
2021/09/21 02:46:33;;;;;;;13.07;12.00;;;8.70;87.90;;;;;;5008362;29;20041;-71
2021/09/21 02:49:05;;;;;;;12.90;11.88;;;8.70;87.70;;;;;;4997134;29;20107;-71
2021/09/21 02:51:37;;;;;;;13.20;12.10;;;8.70;87.80;;;;;;5010796;29;20537;-72
2021/09/21 02:54:10;;;;;;;12.63;11.57;;;8.60;87.90;;;;;;5002038;29;20524;-71
2021/09/21 02:56:42;;;;;;;13.18;11.88;;;8.70;88.10;;;;;;5008749;29;20160;-71
2021/09/21 02:59:13;;;;;;;13.13;12.07;;;8.70;88.10;;;;;;5011914;29;20060;-72
2021/09/21 03:01:45;;;;;;;13.23;12.13;;;8.70;88.00;;;;;;5011035;29;20078;-72
2021/09/21 03:04:34;;;;;;;12.90;11.80;;;8.70;88.00;;;;;;5011085;29;20060;-72
2021/09/21 03:07:15;;;;;;;12.88;11.77;;;8.60;87.30;;;;;;5007381;29;20133;-72
2021/09/21 03:09:55;;;;;;;12.77;11.68;;;8.60;87.60;;;;;;4993458;29;20091;-72
2021/09/21 03:12:43;;;;;;;12.85;11.73;;;8.50;87.60;;;;;;5011395;29;20068;-72
2021/09/21 03:18:09;;;;;;;12.18;11.07;;;8.50;87.90;;;;;;5008441;29;20049;-72
2021/09/21 03:20:41;;;;;;;12.35;11.23;;;8.40;87.90;;;;;;5011967;29;20050;-71
2021/09/21 03:23:13;;;;;;;11.85;10.85;;;8.40;88.30;;;;;;5011033;29;20127;-72
2021/09/21 03:25:45;;;;;;;12.60;11.50;;;8.40;88.30;;;;;;5008990;29;20069;-72
2021/09/21 03:28:17;;;;;;;13.02;11.93;;;8.40;88.50;;;;;;5010432;29;20052;-72
2021/09/21 03:30:49;;;;;;;13.00;11.90;;;8.40;88.50;;;;;;5007891;29;20114;-72
2021/09/21 03:33:21;;;;;;;12.82;11.73;;;8.40;88.10;;;;;;5011929;29;20041;-72
2021/09/21 03:35:53;;;;;;;13.02;11.93;;;8.40;87.90;;;;;;5009073;29;20045;-73
2021/09/21 03:38:25;;;;;;;13.25;12.15;;;8.40;88.00;;;;;;5009693;29;20045;-72
2021/09/21 03:40:57;;;;;;;12.45;11.35;;;8.40;88.10;;;;;;5010794;29;20058;-72
2021/09/21 03:43:29;;;;;;;12.73;11.60;;;8.40;88.20;;;;;;5011136;29;20133;-72
2021/09/21 03:46:01;;;;;;;12.05;11.05;;;8.40;88.30;;;;;;5009524;29;20058;-72
2021/09/21 03:48:33;;;;;;;12.48;11.45;;;8.30;89.10;;;;;;5009709;29;20052;-73
2021/09/21 03:51:05;;;;;;;12.50;11.40;;;8.30;88.40;;;;;;5010679;29;20057;-73
2021/09/21 03:53:37;;;;;;;12.73;11.65;;;8.30;88.30;;;;;;5008162;29;20045;-74
2021/09/21 03:56:09;;;;;;;11.57;10.55;;;8.20;87.80;;;;;;4993827;29;20117;-73
2021/09/21 03:58:40;;;;;;;11.35;10.27;;;8.20;88.00;;;;;;5010469;29;20145;-72
2021/09/21 04:01:12;;;;;;;11.55;10.55;;;8.20;88.20;;;;;;5009198;29;20056;-72
2021/09/21 04:03:45;;;;;;;11.63;10.63;;;8.20;88.60;;;;;;5010412;29;20046;-72
2021/09/21 04:06:16;;;;;;;11.85;10.85;;;8.10;89.00;;;;;;5009503;29;20076;-73
2021/09/21 04:08:49;;;;;;;12.48;11.38;;;8.10;88.80;;;;;;5009707;29;20057;-73
2021/09/21 04:11:22;;;;;;;12.98;11.68;;;8.10;88.80;;;;;;5010262;29;20562;-74
2021/09/21 04:13:53;;;;;;;12.55;11.40;;;8.10;88.50;;;;;;5009381;29;20052;-72
2021/09/21 04:16:28;;;;;;;12.40;11.40;;;8.10;88.30;;;;;;5009076;29;20082;-73
2021/09/21 04:19:00;;;;;;;11.73;10.77;;;8.10;88.50;;;;;;5010749;29;20046;-74
2021/09/21 04:21:32;;;;;;;12.15;11.10;;;8.10;88.70;;;;;;5013625;29;20050;-73
2021/09/21 04:24:04;;;;;;;12.32;11.23;;;8.00;88.80;;;;;;5008913;29;20046;-73
2021/09/21 04:26:36;;;;;;;12.05;10.95;;;8.10;89.10;;;;;;5005395;29;20479;-73
2021/09/21 04:29:10;;;;;;;11.65;10.65;;;8.10;89.70;;;;;;5011318;29;20415;-73
2021/09/21 04:31:44;;;;;;;12.07;10.98;;;8.10;89.10;;;;;;5010613;29;20286;-73
2021/09/21 04:34:16;;;;;;;11.52;10.50;;;8.10;89.60;;;;;;5008868;29;20144;-73
2021/09/21 04:36:47;;;;;;;12.00;10.90;;;8.10;89.40;;;;;;5009724;29;20049;-74
2021/09/21 04:39:19;;;;;;;12.02;10.93;;;8.10;89.30;;;;;;5011623;29;20129;-73
2021/09/21 04:41:51;;;;;;;11.57;10.57;;;8.10;89.80;;;;;;5008874;29;20132;-72
2021/09/21 04:44:23;;;;;;;12.63;11.43;;;8.10;89.40;;;;;;5011963;29;20081;-73
2021/09/21 04:46:55;;;;;;;12.10;11.10;;;8.10;89.40;;;;;;5008077;29;20065;-74
2021/09/21 04:49:27;;;;;;;12.23;11.15;;;8.10;89.00;;;;;;4993047;29;20759;-73
2021/09/21 04:51:59;;;;;;;12.38;11.25;;;8.10;88.80;;;;;;4993131;29;20089;-73
2021/09/21 04:54:31;;;;;;;11.75;10.65;;;8.10;89.20;;;;;;5009535;29;20056;-73
2021/09/21 04:57:03;;;;;;;11.50;10.50;;;8.10;89.80;;;;;;5008809;29;20041;-73
2021/09/21 04:59:35;;;;;;;11.95;10.93;;;8.10;89.50;;;;;;5011311;29;20137;-73
2021/09/21 05:02:07;;;;;;;11.80;10.80;;;8.20;89.20;;;;;;5008352;29;20172;-73
2021/09/21 05:04:39;;;;;;;12.05;10.85;;;8.20;89.30;;;;;;5011166;29;20046;-72
2021/09/21 05:07:11;;;;;;;11.63;10.63;;;8.30;89.50;;;;;;5007440;29;20128;-74
2021/09/21 05:09:43;;;;;;;11.60;10.50;;;8.30;89.00;;;;;;5009659;29;20560;-73
2021/09/21 05:12:15;;;;;;;12.48;11.38;;;8.30;89.30;;;;;;5014436;29;20572;-73
2021/09/21 05:14:47;;;;;;;13.75;12.38;;;8.20;89.00;;;;;;5014346;29;20160;-73
2021/09/21 05:17:19;;;;;;;12.05;11.05;;;8.20;88.80;;;;;;5012211;29;20141;-72
2021/09/21 05:19:52;;;;;;;13.25;11.40;;;8.20;88.70;;;;;;4996667;29;20507;-73
2021/09/21 05:22:24;;;;;;;12.35;11.25;;;8.10;88.70;;;;;;5013228;29;20056;-73
2021/09/21 05:24:58;;;;;;;12.35;11.27;;;8.10;89.40;;;;;;5015752;29;20083;-73
2021/09/21 05:27:30;;;;;;;12.40;11.10;;;8.10;90.00;;;;;;4993863;29;20525;-73
2021/09/21 05:30:02;;;;;;;12.15;11.00;;;8.10;89.80;;;;;;5011937;29;20132;-72
2021/09/21 05:32:34;;;;;;;12.63;11.43;;;8.20;89.60;;;;;;5010127;29;20057;-72
2021/09/21 05:35:07;;;;;;;12.10;11.10;;;8.20;90.20;;;;;;5012760;29;20800;-73
2021/09/21 05:37:39;;;;;;;12.75;11.65;;;8.30;89.70;;;;;;5011185;29;20081;-72
2021/09/21 05:40:16;;;;;;;12.80;11.50;;;8.30;90.10;;;;;;5011130;29;20050;-71
2021/09/21 05:42:48;;;;;;;13.00;11.80;;;8.30;89.80;;;;;;5013491;29;20123;-72
2021/09/21 05:45:20;;;;;;;15.40;13.88;;;8.40;90.50;;;;;;5012461;29;20491;-71
2021/09/21 05:47:52;;;;;;;14.32;13.02;;;8.40;90.80;;;;;;4997849;29;20069;-70
2021/09/21 05:50:24;;;;;;;13.75;12.55;;;8.40;90.60;;;;;;5012568;29;20091;-71
2021/09/21 05:52:56;;;;;;;13.75;12.55;;;8.40;90.90;;;;;;4997320;29;20132;-70
2021/09/21 05:55:28;;;;;;;13.07;11.82;;;8.50;90.80;;;;;;5009439;29;20045;-70
2021/09/21 05:58:00;;;;;;;13.20;12.02;;;8.60;90.70;;;;;;5010596;29;20467;-70
2021/09/21 06:00:33;;;;;;;13.40;12.20;;;8.70;90.80;;;;;;5011676;29;20485;-72
2021/09/21 06:03:05;;;;;;;13.05;11.95;;;8.80;90.30;;;;;;4996285;29;20048;-71
2021/09/21 06:05:37;;;;;;;13.13;11.82;;;8.90;90.70;;;;;;5011672;29;20077;-73
2021/09/21 06:08:09;;;;;;;12.88;11.77;;;9.10;90.90;;;;;;5011143;29;20768;-73
2021/09/21 06:10:41;;;;;;;13.88;12.57;;;9.30;89.80;;;;;;5012503;29;20136;-73
2021/09/21 06:13:13;;;;;;;13.60;12.32;;;9.40;89.30;;;;;;4996582;29;20567;-72
2021/09/21 06:15:47;;;;;;;13.68;12.48;;;9.60;88.80;;;;;;5011987;29;20053;-72
2021/09/21 06:18:19;;;;;;;13.45;12.25;;;9.60;88.10;;;;;;5012192;29;20102;-72
2021/09/21 06:20:51;;;;;;;12.63;11.60;;;9.70;88.00;;;;;;5012590;29;20085;-73
2021/09/21 06:23:22;;;;;;;13.48;12.30;;;9.80;88.30;;;;;;5011047;29;20053;-73
2021/09/21 06:25:54;;;;;;;12.98;11.77;;;9.90;88.60;;;;;;5007768;29;20160;-73
2021/09/21 06:28:26;;;;;;;14.02;12.65;;;10.00;88.50;;;;;;5010727;29;20073;-72
2021/09/21 06:30:58;;;;;;;13.98;12.63;;;10.10;89.00;;;;;;5009901;29;20176;-73
2021/09/21 06:33:30;;;;;;;13.85;12.68;;;10.30;89.20;;;;;;4993169;29;20050;-73
2021/09/21 06:36:03;;;;;;;14.15;12.77;;;10.50;89.10;;;;;;4998241;29;20168;-72
2021/09/21 06:38:38;;;;;;;14.52;13.23;;;10.60;88.80;;;;;;5009395;29;20102;-72
2021/09/21 06:41:09;;;;;;;13.18;11.98;;;10.80;88.20;;;;;;5008736;29;20945;-73
2021/09/21 06:43:41;;;;;;;13.70;12.60;;;10.90;88.30;;;;;;5009239;29;20058;-72
2021/09/21 06:46:13;;;;;;;13.82;12.63;;;11.00;87.90;;;;;;5008412;29;20093;-73
2021/09/21 06:48:45;;;;;;;14.75;13.55;;;11.20;88.20;;;;;;5010629;29;20057;-72
2021/09/21 06:51:19;;;;;;;14.85;13.65;;;11.20;87.20;;;;;;4998928;29;20121;-73
2021/09/21 06:53:51;;;;;;;14.93;13.68;;;11.40;86.60;;;;;;4977923;29;20054;-73
2021/09/21 06:56:28;;;;;;;14.43;13.32;;;11.50;86.60;;;;;;5009095;29;20081;-72
2021/09/21 06:59:00;;;;;;;15.60;14.05;;;11.60;86.50;;;;;;5009728;29;20069;-73
2021/09/21 07:01:32;;;;;;;15.35;14.15;;;11.80;86.10;;;;;;5008640;29;20178;-72
2021/09/21 07:04:04;;;;;;;15.15;13.82;;;11.80;86.20;;;;;;5008121;29;20046;-73
2021/09/21 07:06:36;;;;;;;15.18;13.95;;;11.90;85.40;;;;;;5009681;29;20046;-71
2021/09/21 07:09:08;;;;;;;15.32;14.02;;;11.80;85.30;;;;;;5008258;29;20109;-72
2021/09/21 07:11:40;;;;;;;14.95;13.73;;;11.80;85.60;;;;;;5007358;29;20148;-74
2021/09/21 07:14:14;;;;;;;15.35;14.07;;;11.80;85.60;;;;;;5012693;29;20132;-72
2021/09/21 07:16:46;;;;;;;15.93;14.63;;;11.80;85.80;;;;;;5008027;29;20057;-74
2021/09/21 07:19:18;;;;;;;14.35;13.23;;;11.70;86.30;;;;;;5001027;29;20145;-73
2021/09/21 07:21:50;;;;;;;14.60;13.30;;;11.70;86.70;;;;;;5011053;29;20058;-74
2021/09/21 07:24:22;;;;;;;14.75;13.55;;;11.70;86.10;;;;;;5011972;29;20060;-73
2021/09/21 07:26:54;;;;;;;14.20;13.05;;;11.70;85.80;;;;;;5009754;29;20572;-73
2021/09/21 07:29:26;;;;;;;14.82;13.63;;;11.70;86.00;;;;;;5011919;29;20045;-72
2021/09/21 07:31:58;;;;;;;14.07;12.98;;;11.70;85.90;;;;;;5008645;29;20176;-72
2021/09/21 07:34:30;;;;;;;15.57;14.07;;;11.80;86.20;;;;;;5011781;29;20052;-73
2021/09/21 07:37:03;;;;;;;14.80;13.50;;;11.90;85.70;;;;;;5008845;29;20497;-74
2021/09/21 07:39:34;;;;;;;15.40;14.10;;;11.90;85.20;;;;;;5011480;29;20389;-73
2021/09/21 07:42:06;;;;;;;14.82;13.73;;;11.90;85.80;;;;;;5009543;29;20137;-73
2021/09/21 07:44:38;;;;;;;14.80;13.50;;;12.00;85.80;;;;;;4980970;29;20049;-74
2021/09/21 07:47:10;;;;;;;16.42;14.85;;;12.00;85.90;;;;;;4992278;29;20058;-74
2021/09/21 07:49:46;;;;;;;16.60;15.20;;;12.10;86.10;;;;;;5009547;29;20493;-73
2021/09/21 07:52:18;;;;;;;16.48;15.00;;;12.30;86.40;;;;;;4980520;29;20504;-74
2021/09/21 07:54:50;;;;;;;15.18;13.98;;;12.50;85.80;;;;;;4993668;29;20046;-73
2021/09/21 07:57:22;;;;;;;15.52;14.23;;;12.80;83.90;;;;;;5008720;29;20049;-74
2021/09/21 07:59:55;;;;;;;16.08;14.77;;;13.00;83.80;;;;;;5009623;29;20050;-74
2021/09/21 08:02:27;;;;;;;15.50;14.18;;;13.10;83.60;;;;;;5006833;29;20139;-72
2021/09/21 08:04:59;;;;;;;16.17;14.85;;;13.20;83.70;;;;;;5011367;29;20056;-74
2021/09/21 08:07:31;;;;;;;15.60;14.30;;;13.40;83.30;;;;;;5009741;29;20529;-74
2021/09/21 08:10:05;;;;;;;15.23;14.05;;;13.50;82.10;;;;;;4993271;29;20776;-73
2021/09/21 08:12:39;;;;;;;15.13;13.95;;;13.60;81.60;;;;;;5009821;29;20462;-73
2021/09/21 08:15:11;;;;;;;16.13;14.93;;;13.70;80.90;;;;;;5010031;29;20358;-73
2021/09/21 08:17:44;;;;;;;15.73;14.52;;;13.80;80.50;;;;;;5009118;29;20065;-73
2021/09/21 08:20:16;;;;;;;16.50;15.13;;;14.10;80.60;;;;;;5011324;29;20117;-73
2021/09/21 08:22:48;;;;;;;16.30;15.10;;;14.30;80.40;;;;;;4993613;29;20150;-73
2021/09/21 08:25:21;;;;;;;16.90;15.40;;;14.50;79.00;;;;;;5009895;29;20439;-73
2021/09/21 08:27:55;;;;;;;16.05;14.85;;;14.80;78.90;;;;;;4999909;29;20049;-73
2021/09/21 08:30:33;;;;;;;16.80;15.38;;;15.00;77.50;;;;;;5009119;29;20046;-74
2021/09/21 08:33:05;;;;;;;15.45;14.35;;;15.20;76.10;;;;;;5006929;29;20803;-74
2021/09/21 08:35:37;;;;;;;17.35;15.93;;;15.40;75.50;;;;;;5007968;29;20146;-73
2021/09/21 08:38:09;;;;;;;16.23;15.02;;;15.60;78.20;;;;;;5008322;29;20124;-75
2021/09/21 08:40:41;;;;;;;16.58;15.27;;;15.90;77.00;;;;;;5012238;29;20054;-74
2021/09/21 08:43:13;;;;;;;16.35;15.15;;;16.10;73.90;;;;;;5012161;29;20046;-74
2021/09/21 08:45:45;;;;;;;16.48;14.90;;;16.10;74.60;;;;;;5012523;29;20060;-73
2021/09/21 08:48:17;;;;;;;15.90;14.75;;;16.00;74.50;;;;;;5013265;29;20157;-74
2021/09/21 08:50:49;;;;;;;17.25;15.88;;;15.90;76.00;;;;;;5014216;29;20046;-74
2021/09/21 08:53:21;;;;;;;16.75;15.48;;;16.00;78.10;;;;;;5017152;29;20052;-73
2021/09/21 08:55:53;;;;;;;16.50;15.30;;;16.20;73.80;;;;;;5012689;29;20049;-73
2021/09/21 08:58:28;;;;;;;16.80;15.25;;;16.30;72.80;;;;;;5015509;29;20060;-74
2021/09/21 09:01:10;;;;;;;15.98;14.77;;;16.50;73.70;;;;;;5012637;29;20050;-73
2021/09/21 09:03:57;;;;;;;15.75;14.55;;;16.40;74.10;;;;;;5014473;29;20069;-74
2021/09/21 09:06:29;;;;;;;15.90;14.70;;;16.10;72.90;;;;;;5013279;29;20058;-73
2021/09/21 09:09:10;;;;;;;15.35;13.98;;;15.70;74.50;;;;;;5013881;29;20156;-73
2021/09/21 09:11:46;;;;;;;15.50;14.30;;;15.40;76.60;;;;;;5012275;29;20046;-73
2021/09/21 09:14:22;;;;;;;15.32;14.13;;;15.30;77.00;;;;;;5013193;29;20136;-73
2021/09/21 09:16:59;;;;;;;16.05;14.75;;;15.20;76.90;;;;;;5011933;29;20072;-74
2021/09/21 09:19:44;;;;;;;16.40;14.90;;;15.10;77.70;;;;;;5014469;29;20398;-73
2021/09/21 09:22:21;;;;;;;15.27;14.07;;;15.10;76.80;;;;;;5011373;29;20064;-73
2021/09/21 09:24:58;;;;;;;15.85;14.65;;;15.20;76.80;;;;;;4998262;29;20497;-73
2021/09/21 09:27:48;;;;;;;19.00;17.40;;;15.20;75.00;;;;;;5012377;29;20507;-74
2021/09/21 09:30:23;;;;;;;15.98;14.77;;;15.30;75.70;;;;;;5013637;29;20136;-73
2021/09/21 09:32:57;;;;;;;16.08;14.88;;;15.40;76.60;;;;;;4998086;29;20133;-73
2021/09/21 09:35:37;;;;;;;17.92;16.42;;;15.40;73.00;;;;;;5011850;29;20137;-72
2021/09/21 09:38:12;;;;;;;17.15;15.70;;;15.60;75.90;;;;;;5012163;29;20041;-73
2021/09/21 09:40:51;;;;;;;17.05;15.85;;;15.80;75.30;;;;;;5012733;29;20157;-74
2021/09/21 09:43:26;;;;;;;17.33;15.82;;;15.90;72.80;;;;;;5013198;29;20251;-74
2021/09/21 09:45:59;;;;;;;17.65;16.25;;;15.90;74.20;;;;;;5010847;29;20059;-74
2021/09/21 09:48:31;;;;;;;18.83;17.23;;;16.20;73.50;;;;;;5012611;29;21055;-74
2021/09/21 09:51:04;;;;;;;16.92;15.63;;;16.50;75.20;;;;;;5012446;29;20038;-74
2021/09/21 09:53:36;;;;;;;17.50;16.15;;;16.70;70.80;;;;;;5000078;29;20045;-73
2021/09/21 09:56:08;;;;;;;17.30;15.90;;;16.70;70.50;;;;;;4991754;29;20528;-71
2021/09/21 09:58:40;;;;;;;17.67;16.38;;;16.70;69.00;;;;;;5010099;29;20049;-72
2021/09/21 10:01:12;;;;;;;17.35;16.08;;;16.80;67.80;;;;;;5011401;29;20678;-71
2021/09/21 10:03:45;;;;;;;17.00;15.80;;;16.80;69.90;;;;;;5000339;29;20053;-72
2021/09/21 10:06:17;;;;;;;16.05;14.88;;;17.00;70.00;;;;;;5007852;29;20045;-73
2021/09/21 10:08:52;;;;;;;16.15;14.95;;;16.90;68.50;;;;;;5000104;29;20045;-73
2021/09/21 10:11:29;;;;;;;16.88;15.57;;;16.80;64.40;;;;;;5013072;29;20555;-71
2021/09/21 10:14:03;;;;;;;16.35;15.15;;;16.70;65.50;;;;;;5011339;29;20081;-73
2021/09/21 10:16:44;;;;;;;15.85;14.65;;;16.70;63.90;;;;;;4979493;29;20054;-74
2021/09/21 10:19:22;;;;;;;15.90;14.75;;;16.60;63.60;;;;;;5011058;29;20057;-74
2021/09/21 10:21:55;;;;;;;16.35;15.10;;;16.60;61.00;;;;;;5012017;29;20057;-75
2021/09/21 10:24:36;;;;;;;17.20;15.93;;;16.50;65.40;;;;;;5011373;29;20155;-73
2021/09/21 10:27:11;;;;;;;16.50;15.30;;;16.70;66.50;;;;;;5009732;29;20060;-74
2021/09/21 10:29:43;;;;;;;16.55;15.35;;;16.90;65.80;;;;;;5012567;29;20049;-73
2021/09/21 10:32:16;;;;;;;17.42;16.02;;;17.00;64.20;;;;;;5007710;29;21038;-72
2021/09/21 10:34:49;;;;;;;17.23;15.93;;;17.00;64.00;;;;;;5009709;29;20129;-74
2021/09/21 10:37:23;;;;;;;17.20;15.80;;;17.00;66.20;;;;;;4993442;29;20077;-74
2021/09/21 10:40:00;;;;;;;16.80;15.60;;;17.10;65.70;;;;;;5011834;29;20073;-74
2021/09/21 10:42:33;;;;;;;16.00;14.80;;;17.20;67.40;;;;;;5012348;29;20046;-74
2021/09/21 10:45:06;;;;;;;17.23;15.93;;;17.20;65.00;;;;;;5010276;29;20064;-73
2021/09/21 10:47:39;;;;;;;16.90;15.70;;;17.30;66.60;;;;;;5007782;29;21464;-74
2021/09/21 10:50:16;;;;;;;17.30;16.00;;;17.40;66.30;;;;;;5010855;29;20695;-74
2021/09/21 10:52:48;;;;;;;16.00;14.80;;;17.40;65.50;;;;;;5010903;29;20052;-73
2021/09/21 10:55:20;;;;;;;16.20;14.80;;;17.40;63.40;;;;;;5007439;29;20133;-74
2021/09/21 10:57:52;;;;;;;15.52;14.43;;;17.30;62.00;;;;;;4996195;29;20053;-73
2021/09/21 11:00:24;;;;;;;16.30;15.10;;;17.20;62.10;;;;;;5009921;29;20409;-72
2021/09/21 11:02:57;;;;;;;16.50;14.90;;;17.20;61.00;;;;;;5011316;29;20133;-73
2021/09/21 11:05:29;;;;;;;16.25;15.05;;;17.20;63.20;;;;;;5009800;29;20081;-72
2021/09/21 11:08:03;;;;;;;16.02;14.82;;;17.30;61.60;;;;;;5006731;29;20898;-73
2021/09/21 11:10:38;;;;;;;15.93;14.82;;;17.50;63.20;;;;;;5010196;29;20103;-74
2021/09/21 11:13:13;;;;;;;16.27;15.07;;;17.60;60.20;;;;;;5009297;29;20205;-74
2021/09/21 11:15:46;;;;;;;16.17;14.98;;;17.80;60.00;;;;;;5009934;29;20074;-73
2021/09/21 11:18:19;;;;;;;16.38;15.18;;;17.90;60.00;;;;;;4992223;29;20049;-74
2021/09/21 11:20:53;;;;;;;15.98;14.88;;;18.00;57.50;;;;;;5014805;29;20205;-73
2021/09/21 11:23:30;;;;;;;16.40;15.20;;;18.10;59.00;;;;;;5010413;29;20046;-74
2021/09/21 11:26:05;;;;;;;15.98;14.80;;;18.10;57.70;;;;;;5008872;29;20048;-74
2021/09/21 11:28:46;;;;;;;16.30;15.18;;;18.20;56.40;;;;;;5009199;29;20041;-74
2021/09/21 11:31:18;;;;;;;16.38;15.18;;;18.30;58.30;;;;;;5008730;29;20141;-74
2021/09/21 11:33:53;;;;;;;16.75;15.55;;;18.30;55.50;;;;;;5009130;29;20419;-74
2021/09/21 11:36:31;;;;;;;15.68;14.57;;;18.40;55.90;;;;;;5007116;29;20103;-73
2021/09/21 11:39:03;;;;;;;16.63;15.32;;;18.50;55.90;;;;;;5006488;29;20045;-72
2021/09/21 11:41:35;;;;;;;16.40;15.20;;;18.50;57.90;;;;;;5007634;29;20060;-72
2021/09/21 11:44:07;;;;;;;16.88;15.57;;;18.60;57.50;;;;;;4982973;29;20057;-72
2021/09/21 11:46:38;;;;;;;16.27;15.07;;;18.70;57.70;;;;;;5009289;29;20052;-73
2021/09/21 11:49:11;;;;;;;17.33;15.93;;;18.70;57.00;;;;;;4996790;29;20080;-73
2021/09/21 11:51:42;;;;;;;16.50;15.30;;;18.80;57.00;;;;;;5006635;29;20207;-73
2021/09/21 11:54:15;;;;;;;16.40;15.30;;;18.80;56.60;;;;;;5007793;29;20141;-72
2021/09/21 11:56:47;;;;;;;15.90;14.70;;;18.80;56.80;;;;;;5004420;29;20110;-73
2021/09/21 11:59:20;;;;;;;15.70;14.57;;;18.70;55.70;;;;;;5008135;29;20766;-74
2021/09/21 12:01:54;;;;;;;15.73;14.63;;;18.60;59.20;;;;;;4994499;29;20064;-74
2021/09/21 12:04:31;;;;;;;15.75;14.65;;;18.70;56.10;;;;;;5005297;29;20053;-74
2021/09/21 12:07:03;;;;;;;17.05;15.75;;;18.80;56.00;;;;;;4988548;29;20072;-74
2021/09/21 12:09:35;;;;;;;15.70;14.60;;;18.80;57.00;;;;;;5005747;29;20045;-73
2021/09/21 12:12:22;;;;;;;16.10;14.95;;;19.00;54.90;;;;;;5003041;29;20137;-74
2021/09/21 12:14:59;;;;;;;16.88;15.57;;;19.10;55.20;;;;;;4998915;29;20067;-74
2021/09/21 12:17:42;;;;;;;16.20;15.05;;;19.20;55.40;;;;;;5010924;29;20133;-74
2021/09/21 12:20:14;;;;;;;15.93;14.73;;;19.00;55.80;;;;;;5011395;29;20077;-74
2021/09/21 12:22:50;;;;;;;16.40;15.20;;;18.90;55.20;;;;;;5013148;29;20144;-74
2021/09/21 12:25:25;;;;;;;16.05;14.95;;;18.90;58.90;;;;;;5011715;29;20128;-75
2021/09/21 12:27:58;;;;;;;16.00;14.90;;;19.00;58.00;;;;;;5011015;29;21199;-74
2021/09/21 12:30:33;;;;;;;16.05;14.77;;;19.00;58.50;;;;;;5014040;29;20165;-76
2021/09/21 12:33:10;;;;;;;15.98;14.77;;;19.00;56.30;;;;;;4997343;29;20519;-75
2021/09/21 12:35:53;;;;;;;15.63;14.52;;;19.00;53.90;;;;;;5010431;29;20049;-74
2021/09/21 12:38:25;;;;;;;16.45;15.25;;;18.90;56.90;;;;;;4996341;29;20064;-74
2021/09/21 12:41:05;;;;;;;16.73;15.52;;;19.00;56.60;;;;;;5012732;29;20136;-75
2021/09/21 12:43:45;;;;;;;16.73;15.43;;;19.00;57.40;;;;;;5002157;29;20050;-75
2021/09/21 12:46:18;;;;;;;17.15;15.95;;;19.00;59.10;;;;;;5010929;29;22584;-75
2021/09/21 12:48:50;;;;;;;16.63;15.43;;;19.00;57.90;;;;;;4996724;29;20130;-75
2021/09/21 12:51:33;;;;;;;16.48;15.18;;;18.90;56.60;;;;;;4995197;29;20053;-74
2021/09/21 12:54:06;;;;;;;16.27;15.07;;;18.80;58.30;;;;;;5013626;29;20045;-75
2021/09/21 12:56:42;;;;;;;16.25;15.15;;;18.70;56.40;;;;;;4997407;29;20053;-75
2021/09/21 12:59:24;;;;;;;16.67;15.50;;;18.80;56.80;;;;;;5011737;29;20053;-75
2021/09/21 13:01:57;;;;;;;16.38;15.20;;;18.80;56.60;;;;;;5014041;29;20140;-74
2021/09/21 13:04:44;;;;;;;16.48;15.27;;;18.90;57.60;;;;;;5011877;29;20054;-75
2021/09/21 13:07:17;;;;;;;16.63;15.23;;;18.80;57.90;;;;;;4994385;29;20049;-75
2021/09/21 13:09:49;;;;;;;16.90;15.70;;;18.60;57.10;;;;;;5014478;29;20072;-76
2021/09/21 13:12:24;;;;;;;16.10;14.90;;;18.60;56.20;;;;;;5014547;29;20190;-75
2021/09/21 13:14:56;;;;;;;16.35;15.23;;;18.50;57.20;;;;;;4984589;29;20627;-75